createdAt,value
2023-02-14T00:01:29.266Z,72.47
2023-02-14T00:04:00.772Z,75.15
2023-02-14T00:06:29.876Z,75.47
2023-02-14T00:08:57.960Z,73.80
2023-02-14T00:11:26.095Z,78.15
2023-02-14T00:14:11.311Z,78.15
2023-02-14T00:16:39.573Z,73.82
2023-02-14T00:19:09.710Z,76.32
2023-02-14T00:21:38.960Z,76.40
2023-02-14T00:24:09.300Z,77.38
2023-02-14T00:26:42.532Z,77.20
2023-02-14T00:29:12.588Z,76.10
2023-02-14T00:31:41.496Z,75.00
2023-02-14T00:34:11.580Z,73.40
2023-02-14T00:36:40.135Z,72.25
2023-02-14T00:39:10.194Z,70.78
2023-02-14T00:41:38.443Z,72.40
2023-02-14T00:44:07.109Z,67.82
2023-02-14T00:46:35.797Z,65.22
2023-02-14T00:49:03.888Z,66.82
2023-02-14T00:51:33.378Z,63.92
2023-02-14T00:54:01.911Z,67.18
2023-02-14T00:56:29.988Z,74.97
2023-02-14T00:58:57.970Z,75.57
2023-02-14T01:01:26.113Z,78.45
2023-02-14T01:03:54.247Z,81.55
2023-02-14T01:06:22.335Z,82.50
2023-02-14T01:08:51.722Z,84.25
2023-02-14T01:11:23.084Z,80.10
2023-02-14T01:13:52.859Z,83.53
2023-02-14T01:16:23.629Z,80.25
2023-02-14T01:18:52.125Z,81.70
2023-02-14T01:21:23.323Z,79.07
2023-02-14T01:23:54.097Z,80.85
2023-02-14T01:26:22.986Z,81.07
2023-02-14T01:28:51.252Z,78.68
2023-02-14T01:31:21.953Z,75.15
2023-02-14T01:33:50.966Z,77.15
2023-02-14T01:36:20.933Z,75.20
2023-02-14T01:38:51.635Z,80.25
2023-02-14T01:41:21.259Z,79.50
2023-02-14T01:43:54.934Z,80.90
2023-02-14T01:46:23.203Z,80.90
2023-02-14T01:48:52.629Z,84.60
2023-02-14T01:51:21.798Z,88.05
2023-02-14T01:53:50.953Z,87.00
2023-02-14T01:56:26.121Z,81.72
2023-02-14T01:58:57.410Z,84.10
2023-02-14T02:01:25.781Z,86.30
2023-02-14T02:03:56.927Z,86.82
2023-02-14T02:06:29.087Z,90.28
2023-02-14T02:09:08.127Z,92.10
2023-02-14T02:11:37.941Z,91.22
2023-02-14T02:14:06.376Z,90.65
2023-02-14T02:17:04.441Z,91.82
2023-02-14T02:20:09.598Z,91.53
2023-02-14T02:23:04.350Z,92.85
2023-02-14T02:26:05.447Z,87.68
2023-02-14T02:29:05.705Z,85.45
2023-02-14T02:32:12.025Z,90.70
2023-02-14T02:35:12.400Z,89.38
2023-02-14T02:37:52.862Z,96.70
2023-02-14T02:40:33.874Z,96.75
2023-02-14T02:43:12.276Z,90.97
2023-02-14T02:46:06.597Z,90.00
2023-02-14T02:48:41.617Z,87.93
2023-02-14T02:51:31.878Z,90.45
2023-02-14T02:54:06.405Z,86.85
2023-02-14T02:56:49.909Z,86.97
2023-02-14T02:59:23.273Z,87.13
2023-02-14T03:01:56.226Z,84.85
2023-02-14T03:04:42.797Z,82.82
2023-02-14T03:07:24.667Z,82.47
2023-02-14T03:09:57.441Z,85.07
2023-02-14T03:12:48.121Z,84.68
2023-02-14T03:15:27.697Z,84.30
2023-02-14T03:18:04.705Z,83.13
2023-02-14T03:20:41.694Z,82.85
2023-02-14T03:23:14.411Z,84.20
2023-02-14T03:25:47.883Z,85.00
2023-02-14T03:28:20.074Z,78.75
2023-02-14T03:30:56.924Z,86.30
2023-02-14T03:33:34.661Z,91.05
2023-02-14T03:36:08.258Z,89.45
2023-02-14T03:38:41.036Z,89.43
2023-02-14T03:41:14.244Z,93.80
2023-02-14T03:43:46.747Z,97.45
2023-02-14T03:46:19.030Z,103.70
2023-02-14T03:51:17.219Z,106.45
2023-02-14T03:53:48.687Z,102.50
2023-02-14T03:56:23.620Z,102.53
2023-02-14T03:58:54.968Z,99.20
2023-02-14T04:01:27.925Z,104.55
2023-02-14T04:03:58.303Z,105.90
2023-02-14T04:06:26.437Z,105.15
2023-02-14T04:08:54.453Z,103.45
2023-02-14T04:11:24.616Z,104.40
2023-02-14T04:13:52.963Z,102.13
2023-02-14T04:16:21.073Z,99.55
2023-02-14T04:19:17.873Z,95.07
2023-02-14T04:21:45.880Z,100.80
2023-02-14T04:24:13.891Z,96.75
2023-02-14T04:26:53.957Z,96.45
2023-02-14T04:29:22.067Z,100.50
2023-02-14T04:31:50.264Z,98.57
2023-02-14T04:34:18.342Z,96.90
2023-02-14T04:36:46.311Z,98.28
2023-02-14T04:39:14.303Z,97.30
2023-02-14T04:41:43.707Z,98.70
2023-02-14T04:44:11.670Z,98.15
2023-02-14T04:46:39.778Z,98.43
2023-02-14T04:49:07.891Z,101.18
2023-02-14T04:51:35.915Z,104.20
2023-02-14T04:54:04.014Z,105.20
2023-02-14T04:56:32.003Z,104.97
2023-02-14T04:59:01.434Z,105.03
2023-02-14T05:01:29.530Z,104.22
2023-02-14T05:03:57.977Z,106.00
2023-02-14T05:06:26.121Z,104.90
2023-02-14T05:08:54.372Z,99.38
2023-02-14T05:11:22.360Z,98.20
2023-02-14T05:13:50.411Z,97.40
2023-02-14T05:16:19.816Z,96.00
2023-02-14T05:18:48.275Z,100.18
2023-02-14T05:21:16.327Z,102.43
2023-02-14T05:23:44.598Z,103.10
2023-02-14T05:26:12.654Z,103.22
2023-02-14T05:28:41.699Z,103.13
2023-02-14T05:31:10.124Z,108.95
2023-02-14T05:33:39.550Z,111.13
2023-02-14T05:36:08.298Z,111.95
2023-02-14T05:38:36.319Z,111.20
2023-02-14T05:41:04.430Z,110.07
2023-02-14T05:43:32.854Z,111.00
2023-02-14T05:46:00.926Z,109.95
2023-02-14T05:48:28.944Z,110.80
2023-02-14T05:50:58.581Z,112.68
2023-02-14T05:53:26.779Z,115.03
2023-02-14T05:55:54.786Z,118.88
2023-02-14T05:58:22.868Z,117.43
2023-02-14T06:00:50.872Z,115.32
2023-02-14T06:03:18.953Z,123.78
2023-02-14T06:05:46.973Z,123.10
2023-02-14T06:08:16.371Z,125.65
2023-02-14T06:10:44.351Z,120.38
2023-02-14T06:13:12.410Z,126.85
2023-02-14T06:15:40.444Z,123.15
2023-02-14T06:18:08.602Z,121.95
2023-02-14T06:20:36.879Z,126.38
2023-02-14T06:23:04.942Z,123.97
2023-02-14T06:25:34.447Z,123.70
2023-02-14T06:28:02.487Z,123.97
2023-02-14T06:30:30.681Z,117.63
2023-02-14T06:32:58.759Z,117.43
2023-02-14T06:35:26.778Z,122.28
2023-02-14T06:37:54.808Z,125.88
2023-02-14T06:40:24.012Z,125.88
2023-02-14T06:42:53.446Z,133.00
2023-02-14T06:45:21.470Z,128.43
2023-02-14T06:47:49.545Z,132.82
2023-02-14T06:50:17.757Z,140.80
2023-02-14T06:52:45.807Z,141.57
2023-02-14T06:55:13.963Z,135.43
2023-02-14T06:57:42.106Z,149.60
2023-02-14T07:00:12.422Z,147.18
2023-02-14T07:02:40.436Z,144.95
2023-02-14T07:05:08.889Z,146.15
2023-02-14T07:07:36.883Z,156.85
2023-02-14T07:10:05.124Z,156.07
2023-02-14T07:12:33.155Z,164.45
2023-02-14T07:15:01.206Z,169.10
2023-02-14T07:17:30.631Z,164.57
2023-02-14T07:19:58.637Z,175.70
2023-02-14T07:22:26.696Z,184.50
2023-02-14T07:24:54.710Z,183.77
2023-02-14T07:27:22.686Z,189.20
2023-02-14T07:29:50.690Z,193.98
2023-02-14T07:32:18.959Z,204.70
2023-02-14T07:34:48.797Z,201.20
2023-02-14T07:37:17.715Z,201.68
2023-02-14T07:39:46.239Z,204.35
2023-02-14T07:42:14.379Z,207.45
2023-02-14T07:44:42.453Z,215.45
2023-02-14T07:47:11.507Z,215.65
2023-02-14T07:49:39.498Z,219.77
2023-02-14T07:52:08.902Z,224.60
2023-02-14T07:54:38.619Z,233.77
2023-02-14T07:57:06.687Z,245.25
2023-02-14T07:59:34.710Z,250.95
2023-02-14T08:02:02.831Z,260.98
2023-02-14T08:04:32.952Z,269.17
2023-02-14T08:07:01.897Z,266.35
2023-02-14T08:09:31.484Z,274.48
2023-02-14T08:12:17.352Z,281.27
2023-02-14T08:14:46.183Z,284.17
2023-02-14T08:17:14.498Z,287.52
2023-02-14T08:19:42.594Z,284.73
2023-02-14T08:22:10.661Z,284.88
2023-02-14T08:24:40.047Z,293.10
2023-02-14T08:27:08.031Z,291.38
2023-02-14T08:29:36.090Z,290.85
2023-02-14T08:32:04.210Z,302.70
2023-02-14T08:34:32.316Z,304.35
2023-02-14T08:37:00.324Z,317.55
2023-02-14T08:39:28.311Z,315.83
2023-02-14T08:41:57.768Z,317.70
2023-02-14T08:44:25.944Z,318.85
2023-02-14T08:46:54.050Z,324.88
2023-02-14T08:49:22.116Z,327.65
2023-02-14T08:51:50.221Z,324.10
2023-02-14T08:54:20.450Z,328.23
2023-02-14T08:56:48.665Z,329.60
2023-02-14T08:59:18.169Z,334.38
2023-02-14T09:01:46.224Z,333.08
2023-02-14T09:04:14.336Z,341.65
2023-02-14T09:06:42.420Z,337.42
2023-02-14T09:09:10.495Z,342.42
2023-02-14T09:11:38.546Z,330.92
2023-02-14T09:14:06.615Z,337.33
2023-02-14T09:16:36.112Z,331.65
2023-02-14T09:19:04.223Z,309.60
2023-02-14T09:21:32.274Z,332.73
2023-02-14T09:24:00.340Z,322.98
2023-02-14T09:26:28.837Z,332.02
2023-02-14T09:28:57.830Z,331.63
2023-02-14T09:31:26.579Z,334.83
2023-02-14T09:33:56.381Z,300.02
2023-02-14T09:36:41.668Z,312.77
2023-02-14T09:39:09.712Z,309.98
2023-02-14T09:42:16.355Z,303.35
2023-02-14T09:44:47.591Z,292.73
2023-02-14T09:47:23.569Z,287.27
2023-02-14T09:49:54.574Z,283.05
2023-02-14T09:52:26.648Z,283.30
2023-02-14T09:54:58.538Z,272.23
2023-02-14T09:57:37.010Z,278.23
2023-02-14T10:00:17.330Z,267.20
2023-02-14T10:02:55.437Z,253.43
2023-02-14T10:05:28.437Z,237.70
2023-02-14T10:08:06.608Z,237.27
2023-02-14T10:10:40.537Z,216.65
2023-02-14T10:13:20.371Z,209.23
2023-02-14T10:15:50.835Z,211.32
2023-02-14T10:18:23.315Z,197.00
2023-02-14T10:20:55.766Z,202.23
2023-02-14T10:23:33.043Z,190.07
2023-02-14T10:26:04.406Z,166.02
2023-02-14T10:28:35.391Z,156.00
2023-02-14T10:31:17.729Z,142.57
2023-02-14T10:33:57.382Z,127.32
2023-02-14T10:36:53.397Z,115.97
2023-02-14T10:39:37.208Z,111.53
2023-02-14T10:42:11.308Z,92.20
2023-02-14T10:44:49.033Z,81.38
2023-02-14T10:47:35.588Z,80.25
2023-02-14T10:50:13.355Z,83.05
2023-02-14T10:52:49.094Z,80.63
2023-02-14T10:55:32.109Z,77.07
2023-02-14T10:58:05.166Z,76.22
2023-02-14T11:03:07.262Z,75.03
2023-02-14T11:08:16.022Z,71.03
2023-02-14T11:10:44.206Z,69.22
2023-02-14T11:13:29.712Z,68.95
2023-02-14T11:16:02.015Z,68.07
2023-02-14T11:18:33.135Z,73.30
2023-02-14T11:21:10.382Z,71.03
2023-02-14T11:23:42.209Z,63.78
2023-02-14T11:26:17.655Z,66.63
2023-02-14T11:28:55.352Z,66.20
2023-02-14T11:31:31.706Z,63.67
2023-02-14T11:34:00.269Z,67.38
2023-02-14T11:36:28.665Z,62.47
2023-02-14T11:39:03.174Z,59.38
2023-02-14T11:41:48.483Z,58.90
2023-02-14T11:44:22.641Z,65.75
2023-02-14T11:46:53.524Z,55.30
2023-02-14T11:49:29.650Z,58.35
2023-02-14T11:51:59.507Z,62.60
2023-02-14T11:54:35.898Z,58.08
2023-02-14T11:57:07.634Z,60.35
2023-02-14T11:59:41.858Z,58.38
2023-02-14T12:02:25.184Z,60.40
2023-02-14T12:04:56.960Z,59.67
2023-02-14T12:07:29.965Z,58.58
2023-02-14T12:10:24.454Z,59.85
2023-02-14T12:12:56.246Z,62.85
2023-02-14T12:15:50.783Z,59.53
2023-02-14T12:18:42.392Z,55.42
2023-02-14T12:21:24.611Z,56.70
2023-02-14T12:24:01.782Z,55.97
2023-02-14T12:26:36.076Z,52.95
2023-02-14T12:29:14.040Z,56.58
2023-02-14T12:31:43.159Z,57.55
2023-02-14T12:34:12.716Z,56.83
2023-02-14T12:37:04.855Z,52.45
2023-02-14T12:39:39.202Z,52.53
2023-02-14T12:42:22.804Z,53.30
2023-02-14T12:44:59.969Z,51.15
2023-02-14T12:47:38.738Z,53.65
2023-02-14T12:50:32.566Z,50.30
2023-02-14T12:53:31.888Z,51.10
2023-02-14T12:56:11.777Z,50.83
2023-02-14T12:58:50.589Z,48.50
2023-02-14T13:01:46.374Z,51.45
2023-02-14T13:04:33.992Z,49.30
2023-02-14T13:07:09.243Z,49.53
2023-02-14T13:09:46.676Z,49.90
2023-02-14T13:12:29.771Z,52.50
2023-02-14T13:15:12.889Z,51.55
2023-02-14T13:17:45.641Z,54.00
2023-02-14T13:20:48.455Z,44.70
2023-02-14T13:25:51.957Z,43.42
2023-02-14T13:28:21.227Z,45.25
2023-02-14T13:30:50.853Z,47.33
2023-02-14T13:33:34.065Z,44.78
2023-02-14T13:36:05.065Z,43.92
2023-02-14T13:38:33.631Z,46.92
2023-02-14T13:41:05.441Z,42.80
2023-02-14T13:43:54.984Z,44.20
2023-02-14T13:46:48.770Z,44.10
2023-02-14T13:49:32.830Z,45.67
2023-02-14T13:52:03.900Z,43.40
2023-02-14T13:54:38.733Z,45.08
2023-02-14T13:57:26.960Z,42.05
2023-02-14T14:00:25.447Z,42.67
2023-02-14T14:02:55.596Z,41.30
2023-02-14T14:06:00.284Z,42.00
2023-02-14T14:08:42.816Z,42.75
2023-02-14T14:14:05.119Z,39.58
2023-02-14T14:16:35.104Z,40.15
2023-02-14T14:19:12.209Z,37.70
2023-02-14T14:21:43.525Z,39.92
2023-02-14T14:24:23.052Z,43.83
2023-02-14T14:26:54.402Z,41.85
2023-02-14T14:29:28.416Z,38.30
2023-02-14T14:31:56.902Z,42.08
2023-02-14T14:34:28.510Z,42.47
2023-02-14T14:37:04.045Z,41.63
2023-02-14T14:39:34.750Z,41.72
2023-02-14T14:42:13.872Z,46.13
2023-02-14T14:44:48.213Z,46.47
2023-02-14T14:47:20.851Z,42.38
2023-02-14T14:49:50.403Z,41.13
2023-02-14T14:52:32.509Z,38.35
2023-02-14T14:55:01.947Z,37.85
2023-02-14T14:57:29.964Z,44.65
2023-02-14T15:00:20.556Z,41.38
2023-02-14T15:03:03.959Z,42.17
2023-02-14T15:05:35.824Z,44.70
2023-02-14T15:08:23.369Z,45.80
2023-02-14T15:10:55.695Z,45.75
2023-02-14T15:13:49.691Z,41.65
2023-02-14T15:16:22.621Z,42.60
2023-02-14T15:18:52.044Z,44.10
2023-02-14T15:21:21.723Z,46.10
2023-02-14T15:23:50.480Z,46.13
2023-02-14T15:26:20.079Z,42.35
2023-02-14T15:28:56.417Z,49.63
2023-02-14T15:31:26.422Z,45.30
2023-02-14T15:33:54.647Z,45.05
2023-02-14T15:36:25.601Z,48.65
2023-02-14T15:38:56.735Z,47.92
2023-02-14T15:41:26.885Z,48.20
2023-02-14T15:43:57.302Z,45.33
2023-02-14T15:46:34.572Z,48.17
2023-02-14T15:49:08.580Z,49.35
2023-02-14T15:51:39.879Z,51.80
2023-02-14T15:54:19.876Z,52.37
2023-02-14T15:56:50.452Z,47.88
2023-02-14T15:59:21.598Z,50.05
2023-02-14T16:01:54.855Z,48.85
2023-02-14T16:04:28.278Z,53.78
2023-02-14T16:07:22.268Z,50.78
2023-02-14T16:09:51.317Z,50.50
2023-02-14T16:12:32.926Z,54.72
2023-02-14T16:15:04.492Z,51.30
2023-02-14T16:17:34.225Z,50.72
2023-02-14T16:20:24.362Z,53.42
2023-02-14T16:22:54.037Z,50.55
2023-02-14T16:25:22.278Z,54.83
2023-02-14T16:27:51.295Z,50.40
2023-02-14T16:30:20.431Z,52.25
2023-02-14T16:32:53.704Z,54.15
2023-02-14T16:35:22.976Z,57.92
2023-02-14T16:37:53.508Z,52.03
2023-02-14T16:40:26.969Z,53.60
2023-02-14T16:42:55.143Z,51.38
2023-02-14T16:45:23.346Z,55.40
2023-02-14T16:47:51.499Z,54.83
2023-02-14T16:50:20.445Z,55.42
2023-02-14T16:52:52.445Z,60.95
2023-02-14T16:55:22.023Z,56.28
2023-02-14T16:57:53.044Z,54.92
2023-02-14T17:00:23.848Z,54.80
2023-02-14T17:02:51.991Z,59.40
2023-02-14T17:05:20.146Z,58.53
2023-02-14T17:07:48.296Z,59.78
2023-02-14T17:10:19.209Z,61.88
2023-02-14T17:12:50.346Z,57.88
2023-02-14T17:15:21.390Z,58.92
2023-02-14T17:17:51.787Z,53.28
2023-02-14T17:20:21.975Z,57.58
2023-02-14T17:22:50.133Z,57.75
2023-02-14T17:25:18.485Z,62.22
2023-02-14T17:27:48.333Z,57.67
2023-02-14T17:30:17.822Z,64.72
2023-02-14T17:32:46.165Z,58.60
2023-02-14T17:35:14.552Z,57.65
2023-02-14T17:37:43.035Z,63.08
2023-02-14T17:40:12.203Z,58.63
2023-02-14T17:42:40.247Z,60.72
2023-02-14T17:45:11.948Z,63.58
2023-02-14T17:47:43.036Z,60.70
2023-02-14T17:50:11.788Z,59.60
2023-02-14T17:52:40.043Z,65.65
2023-02-14T17:55:09.485Z,60.75
2023-02-14T17:57:39.154Z,65.13
2023-02-14T18:00:12.052Z,64.07
2023-02-14T18:02:40.169Z,64.20
2023-02-14T18:05:09.087Z,64.32
2023-02-14T18:07:38.166Z,60.03
2023-02-14T18:10:07.250Z,65.88
2023-02-14T18:12:35.434Z,64.18
2023-02-14T18:15:03.473Z,66.90
2023-02-14T18:17:32.910Z,67.10
2023-02-14T18:20:00.993Z,63.58
2023-02-14T18:22:29.384Z,68.03
2023-02-14T18:24:58.840Z,63.58
2023-02-14T18:27:27.451Z,63.17
2023-02-14T18:29:55.578Z,66.78
2023-02-14T18:32:24.085Z,68.82
2023-02-14T18:34:53.982Z,67.00
2023-02-14T18:37:22.136Z,66.57
2023-02-14T18:39:50.193Z,69.75
2023-02-14T18:42:18.249Z,69.85
2023-02-14T18:44:46.538Z,71.30
2023-02-14T18:47:14.518Z,72.93
2023-02-14T18:49:42.852Z,73.28
2023-02-14T18:52:12.341Z,78.82
2023-02-14T18:54:40.663Z,78.07
2023-02-14T18:57:09.296Z,76.85
2023-02-14T18:59:37.311Z,73.57
2023-02-14T19:02:05.358Z,74.78
2023-02-14T19:04:33.409Z,76.20
2023-02-14T19:07:04.380Z,79.47
2023-02-14T19:09:38.998Z,71.95
2023-02-14T19:12:07.920Z,76.63
2023-02-14T19:14:36.323Z,76.18
2023-02-14T19:17:05.605Z,74.10
2023-02-14T19:19:33.672Z,81.68
2023-02-14T19:22:02.500Z,80.18
2023-02-14T19:24:30.571Z,78.07
2023-02-14T19:27:00.011Z,74.03
2023-02-14T19:29:28.145Z,76.28
2023-02-14T19:31:56.578Z,79.82
2023-02-14T19:34:28.916Z,80.53
2023-02-14T19:36:59.865Z,78.32
2023-02-14T19:39:29.444Z,85.50
2023-02-14T19:42:00.228Z,81.40
2023-02-14T19:44:31.208Z,83.10
2023-02-14T19:47:04.104Z,83.60
2023-02-14T19:49:36.365Z,77.80
2023-02-14T19:52:09.496Z,80.18
2023-02-14T19:54:42.442Z,87.25
2023-02-14T19:57:15.109Z,84.55
2023-02-14T19:59:43.205Z,88.95
2023-02-14T20:02:16.464Z,98.78
2023-02-14T20:04:44.725Z,88.78
2023-02-14T20:07:13.016Z,94.53
2023-02-14T20:09:41.137Z,97.80
2023-02-14T20:12:10.736Z,92.35
2023-02-14T20:14:50.957Z,92.65
2023-02-14T20:17:19.961Z,87.85
2023-02-14T20:19:48.971Z,87.15
2023-02-14T20:22:16.998Z,88.90
2023-02-14T20:24:45.172Z,84.50
2023-02-14T20:27:13.352Z,90.00
2023-02-14T20:29:45.004Z,84.63
2023-02-14T20:32:14.847Z,82.63
2023-02-14T20:34:43.607Z,85.30
2023-02-14T20:37:12.110Z,83.40
2023-02-14T20:39:40.843Z,89.53
2023-02-14T20:42:09.176Z,86.75
2023-02-14T20:44:37.868Z,89.53
2023-02-14T20:47:07.531Z,89.85
2023-02-14T20:49:35.813Z,92.72
2023-02-14T20:52:04.037Z,90.75
2023-02-14T20:54:32.139Z,95.30
2023-02-14T20:57:00.138Z,89.13
2023-02-14T20:59:28.810Z,90.65
2023-02-14T21:01:58.105Z,91.65
2023-02-14T21:04:28.053Z,92.82
2023-02-14T21:06:57.933Z,85.20
2023-02-14T21:09:26.143Z,93.68
2023-02-14T21:11:54.897Z,85.72
2023-02-14T21:14:22.988Z,89.43
2023-02-14T21:16:51.094Z,88.18
2023-02-14T21:19:19.825Z,98.10
2023-02-14T21:21:49.311Z,94.10
2023-02-14T21:24:17.815Z,94.22
2023-02-14T21:26:46.240Z,94.07
2023-02-14T21:29:14.265Z,100.78
2023-02-14T21:31:43.181Z,100.20
2023-02-14T21:34:11.640Z,99.38
2023-02-14T21:36:39.695Z,96.70
2023-02-14T21:39:09.257Z,93.13
2023-02-14T21:41:37.753Z,100.57
2023-02-14T21:44:06.886Z,96.93
2023-02-14T21:46:40.986Z,102.28
2023-02-14T21:49:26.325Z,102.50
2023-02-14T21:51:54.418Z,103.13
2023-02-14T21:54:23.833Z,105.40
2023-02-14T21:56:51.853Z,100.25
2023-02-14T21:59:19.822Z,100.88
2023-02-14T22:01:47.907Z,102.93
2023-02-14T22:04:16.229Z,98.97
2023-02-14T22:06:44.390Z,98.75
2023-02-14T22:09:14.867Z,92.82
2023-02-14T22:11:44.249Z,97.82
2023-02-14T22:14:14.493Z,98.30
2023-02-14T22:16:43.373Z,97.47
2023-02-14T22:19:14.798Z,100.43
2023-02-14T22:21:44.771Z,105.47
2023-02-14T22:24:13.717Z,109.15
2023-02-14T22:26:43.277Z,104.38
2023-02-14T22:29:13.671Z,105.03
2023-02-14T22:31:43.447Z,101.70
2023-02-14T22:34:14.329Z,104.90
2023-02-14T22:36:42.608Z,107.63
2023-02-14T22:39:11.532Z,107.82
2023-02-14T22:41:39.673Z,104.68
2023-02-14T22:44:09.242Z,107.28
2023-02-14T22:46:37.887Z,114.25
2023-02-14T22:49:06.355Z,127.70
2023-02-14T22:51:36.220Z,116.07
2023-02-14T22:54:06.730Z,120.85
2023-02-14T22:56:36.959Z,122.05
2023-02-14T22:59:06.871Z,120.57
2023-02-14T23:01:37.194Z,117.45
2023-02-14T23:04:05.913Z,121.45
2023-02-14T23:06:36.418Z,116.70
2023-02-14T23:09:07.678Z,118.15
2023-02-14T23:11:37.882Z,124.95
2023-02-14T23:14:24.312Z,119.30
2023-02-14T23:17:19.804Z,118.38
2023-02-14T23:20:05.874Z,110.28
2023-02-14T23:22:35.418Z,113.85
2023-02-14T23:25:06.306Z,112.47
2023-02-14T23:27:36.647Z,120.97
2023-02-14T23:30:06.318Z,115.38
2023-02-14T23:32:35.790Z,113.05
2023-02-14T23:35:03.855Z,112.57
2023-02-14T23:37:31.889Z,112.75
2023-02-14T23:39:59.892Z,104.80
2023-02-14T23:42:28.232Z,121.55
2023-02-14T23:45:16.284Z,116.25
2023-02-14T23:47:45.726Z,114.78
2023-02-14T23:50:13.714Z,133.50
2023-02-14T23:52:42.398Z,135.07
2023-02-14T23:55:11.204Z,131.68
2023-02-14T23:57:39.591Z,133.10
